createdAt,value
2019-01-29T00:00:14.190Z,2.67
2019-01-29T00:01:17.700Z,2.75
2019-01-29T00:02:21.142Z,2.70
2019-01-29T00:03:24.631Z,2.65
2019-01-29T00:04:28.213Z,2.59
2019-01-29T00:05:31.825Z,2.67
2019-01-29T00:06:35.339Z,2.67
2019-01-29T00:07:38.881Z,2.65
2019-01-29T00:08:42.407Z,2.60
2019-01-29T00:09:45.832Z,2.55
2019-01-29T00:10:49.408Z,2.53
2019-01-29T00:11:52.818Z,2.47
2019-01-29T00:12:56.450Z,2.43
2019-01-29T00:13:59.896Z,2.46
2019-01-29T00:15:05.059Z,2.47
2019-01-29T00:16:08.588Z,2.57
2019-01-29T00:17:12.078Z,2.59
2019-01-29T00:18:15.512Z,2.54
2019-01-29T00:19:19.025Z,2.53
2019-01-29T00:20:22.512Z,2.50
2019-01-29T00:21:25.957Z,2.50
2019-01-29T00:22:33.526Z,2.50
2019-01-29T00:23:34.577Z,2.44
2019-01-29T00:24:38.072Z,2.43
2019-01-29T00:25:41.645Z,2.48
2019-01-29T00:26:45.096Z,2.56
2019-01-29T00:27:48.608Z,2.54
2019-01-29T00:28:52.033Z,2.48
2019-01-29T00:29:55.457Z,2.42
2019-01-29T00:30:59.026Z,2.40
2019-01-29T00:32:02.535Z,2.35
2019-01-29T00:33:06.087Z,2.32
2019-01-29T00:34:09.659Z,2.32
2019-01-29T00:35:13.737Z,2.24
2019-01-29T00:36:17.236Z,2.26
2019-01-29T00:37:20.686Z,2.31
2019-01-29T00:38:24.164Z,2.33
2019-01-29T00:39:27.572Z,2.29
2019-01-29T00:40:30.983Z,2.37
2019-01-29T00:41:34.513Z,2.41
2019-01-29T00:42:38.078Z,2.41
2019-01-29T00:43:41.564Z,2.41
2019-01-29T00:44:45.076Z,2.45
2019-01-29T00:45:48.588Z,2.41
2019-01-29T00:46:52.071Z,2.42
2019-01-29T00:47:55.619Z,2.28
2019-01-29T00:48:59.051Z,2.25
2019-01-29T00:50:02.480Z,2.22
2019-01-29T00:51:06.047Z,2.25
2019-01-29T00:52:09.721Z,2.30
2019-01-29T00:53:13.235Z,2.30
2019-01-29T00:54:16.780Z,2.26
2019-01-29T00:55:20.307Z,2.24
2019-01-29T00:56:23.828Z,2.20
2019-01-29T00:57:27.321Z,2.18
2019-01-29T00:58:30.929Z,2.21
2019-01-29T00:59:34.366Z,2.18
2019-01-29T01:00:37.864Z,2.24
2019-01-29T01:01:41.439Z,2.34
2019-01-29T01:02:44.924Z,2.44
2019-01-29T01:03:48.441Z,2.33
2019-01-29T01:04:52.021Z,2.35
2019-01-29T01:05:55.522Z,2.38
2019-01-29T01:06:58.955Z,2.38
2019-01-29T01:08:02.385Z,2.32
2019-01-29T01:09:08.316Z,2.29
2019-01-29T01:10:14.893Z,2.32
2019-01-29T01:11:18.392Z,2.36
2019-01-29T01:12:21.896Z,2.24
2019-01-29T01:13:25.432Z,2.16
2019-01-29T01:14:28.876Z,2.17
2019-01-29T01:15:32.371Z,2.18
2019-01-29T01:16:35.835Z,2.15
2019-01-29T01:17:39.322Z,2.22
2019-01-29T01:18:42.757Z,2.27
2019-01-29T01:19:46.220Z,2.19
2019-01-29T01:20:49.748Z,2.16
2019-01-29T01:21:53.173Z,2.07
2019-01-29T01:22:56.672Z,2.12
2019-01-29T01:24:00.199Z,2.20
2019-01-29T01:25:04.408Z,2.21
2019-01-29T01:26:07.968Z,2.19
2019-01-29T01:27:11.548Z,2.24
2019-01-29T01:28:15.052Z,2.27
2019-01-29T01:29:18.468Z,2.22
2019-01-29T01:30:22.068Z,2.19
2019-01-29T01:31:25.580Z,2.24
2019-01-29T01:32:29.002Z,2.20
2019-01-29T01:33:32.429Z,2.21
2019-01-29T01:34:35.854Z,2.16
2019-01-29T01:35:39.296Z,2.18
2019-01-29T01:36:42.920Z,2.20
2019-01-29T01:37:46.472Z,2.19
2019-01-29T01:38:49.911Z,2.09
2019-01-29T01:39:53.408Z,1.94
2019-01-29T01:40:56.938Z,1.93
2019-01-29T01:42:00.444Z,1.97
2019-01-29T01:43:04.036Z,2.07
2019-01-29T01:44:07.607Z,2.02
2019-01-29T01:45:12.180Z,2.10
2019-01-29T01:46:15.704Z,2.06
2019-01-29T01:47:19.230Z,2.07
2019-01-29T01:48:22.701Z,2.12
2019-01-29T01:49:26.208Z,2.14
2019-01-29T01:50:29.646Z,2.09
2019-01-29T01:51:33.095Z,2.13
2019-01-29T01:52:36.707Z,2.15
2019-01-29T01:53:40.211Z,2.18
2019-01-29T01:54:43.628Z,2.11
2019-01-29T01:55:47.063Z,2.20
2019-01-29T01:56:50.585Z,2.15
2019-01-29T01:57:54.111Z,2.05
2019-01-29T01:58:57.554Z,2.02
2019-01-29T02:00:00.988Z,2.00
2019-01-29T02:01:04.652Z,2.00
2019-01-29T02:02:08.367Z,2.08
2019-01-29T02:03:11.942Z,2.11
2019-01-29T02:04:15.366Z,2.13
2019-01-29T02:05:18.951Z,2.07
2019-01-29T02:06:22.459Z,2.13
2019-01-29T02:07:25.894Z,2.12
2019-01-29T02:08:29.488Z,2.12
2019-01-29T02:09:33.153Z,2.12
2019-01-29T02:10:37.145Z,2.11
2019-01-29T02:11:40.634Z,2.02
2019-01-29T02:12:44.140Z,1.96
2019-01-29T02:13:47.570Z,1.97
2019-01-29T02:14:51.004Z,1.96
2019-01-29T02:15:54.492Z,1.94
2019-01-29T02:16:57.934Z,1.93
2019-01-29T02:18:01.378Z,1.91
2019-01-29T02:19:04.967Z,2.04
2019-01-29T02:20:11.691Z,2.01
2019-01-29T02:21:15.260Z,2.05
2019-01-29T02:22:18.758Z,2.01
2019-01-29T02:23:22.283Z,1.95
2019-01-29T02:24:25.907Z,2.02
2019-01-29T02:25:29.402Z,2.00
2019-01-29T02:26:32.828Z,1.98
2019-01-29T02:27:36.316Z,1.96
2019-01-29T02:28:39.759Z,1.86
2019-01-29T02:29:43.218Z,1.78
2019-01-29T02:30:46.715Z,1.80
2019-01-29T02:31:50.144Z,1.88
2019-01-29T02:32:53.680Z,1.90
2019-01-29T02:33:57.138Z,1.91
2019-01-29T02:35:00.652Z,1.90
2019-01-29T02:36:04.144Z,1.90
2019-01-29T02:37:07.642Z,1.90
2019-01-29T02:38:11.075Z,2.00
2019-01-29T02:39:14.531Z,2.03
2019-01-29T02:40:20.521Z,2.05
2019-01-29T02:41:23.950Z,1.98
2019-01-29T02:42:27.377Z,2.02
2019-01-29T02:43:30.797Z,2.13
2019-01-29T02:44:34.234Z,2.06
2019-01-29T02:45:37.700Z,2.06
2019-01-29T02:46:41.292Z,2.04
2019-01-29T02:47:44.693Z,2.11
2019-01-29T02:48:48.271Z,2.11
2019-01-29T02:49:51.789Z,2.10
2019-01-29T02:50:55.232Z,2.02
2019-01-29T02:51:58.743Z,2.04
2019-01-29T02:53:02.183Z,2.12
2019-01-29T02:54:05.834Z,1.99
2019-01-29T02:55:11.530Z,1.99
2019-01-29T02:56:15.039Z,1.92
2019-01-29T02:57:18.615Z,1.91
2019-01-29T02:58:22.038Z,1.92
2019-01-29T02:59:25.496Z,2.00
2019-01-29T03:00:29.019Z,1.95
2019-01-29T03:01:32.445Z,1.93
2019-01-29T03:02:35.881Z,1.86
2019-01-29T03:03:39.306Z,1.93
2019-01-29T03:04:42.816Z,2.01
2019-01-29T03:05:46.331Z,2.03
2019-01-29T03:06:51.407Z,2.02
2019-01-29T03:07:54.889Z,2.01
2019-01-29T03:08:58.333Z,2.16
2019-01-29T03:10:01.836Z,2.20
2019-01-29T03:11:05.434Z,2.10
2019-01-29T03:12:08.940Z,2.18
2019-01-29T03:13:12.435Z,2.19
2019-01-29T03:14:15.882Z,2.22
2019-01-29T03:15:22.090Z,2.18
2019-01-29T03:16:25.536Z,2.24
2019-01-29T03:17:29.042Z,2.26
2019-01-29T03:18:32.475Z,2.27
2019-01-29T03:19:35.888Z,2.36
2019-01-29T03:20:39.385Z,2.24
2019-01-29T03:21:42.934Z,2.30
2019-01-29T03:22:46.572Z,2.35
2019-01-29T03:23:50.001Z,2.38
2019-01-29T03:24:53.432Z,2.32
2019-01-29T03:25:56.859Z,2.37
2019-01-29T03:27:00.385Z,2.37
2019-01-29T03:28:04.091Z,2.25
2019-01-29T03:29:07.592Z,2.09
2019-01-29T03:30:16.701Z,2.05
2019-01-29T03:31:20.180Z,2.03
2019-01-29T03:32:23.696Z,2.09
2019-01-29T03:33:27.126Z,2.08
2019-01-29T03:34:30.558Z,2.20
2019-01-29T03:35:34.055Z,2.19
2019-01-29T03:36:37.587Z,2.18
2019-01-29T03:37:41.193Z,2.20
2019-01-29T03:38:44.624Z,2.13
2019-01-29T03:39:48.077Z,1.99
2019-01-29T03:40:51.667Z,1.99
2019-01-29T03:41:55.191Z,2.07
2019-01-29T03:42:58.700Z,2.07
2019-01-29T03:44:02.267Z,2.06
2019-01-29T03:45:09.128Z,2.04
2019-01-29T03:46:12.551Z,2.04
2019-01-29T03:47:16.067Z,1.99
2019-01-29T03:48:19.639Z,2.08
2019-01-29T03:49:23.084Z,2.08
2019-01-29T03:50:26.775Z,2.04
2019-01-29T03:51:31.912Z,2.03
2019-01-29T03:52:35.370Z,2.02
2019-01-29T03:53:38.794Z,2.04
2019-01-29T03:54:42.381Z,1.98
2019-01-29T03:55:45.876Z,2.07
2019-01-29T03:56:49.359Z,2.10
2019-01-29T03:57:52.799Z,2.03
2019-01-29T03:58:56.195Z,2.08
2019-01-29T03:59:59.623Z,1.99
2019-01-29T04:01:03.190Z,2.01
2019-01-29T04:02:06.702Z,2.00
2019-01-29T04:03:10.210Z,2.01
2019-01-29T04:04:13.781Z,2.09
2019-01-29T04:05:17.254Z,2.01
2019-01-29T04:06:20.814Z,1.98
2019-01-29T04:07:24.331Z,1.93
2019-01-29T04:08:27.749Z,2.00
2019-01-29T04:09:31.329Z,2.05
2019-01-29T04:10:34.860Z,1.98
2019-01-29T04:11:38.286Z,1.97
2019-01-29T04:12:41.798Z,2.04
2019-01-29T04:13:45.346Z,2.12
2019-01-29T04:14:48.853Z,2.18
2019-01-29T04:15:52.418Z,2.15
2019-01-29T04:16:55.931Z,2.14
2019-01-29T04:17:59.704Z,2.11
2019-01-29T04:19:03.373Z,2.17
2019-01-29T04:20:09.746Z,2.21
2019-01-29T04:21:13.185Z,2.18
2019-01-29T04:22:16.724Z,2.17
2019-01-29T04:23:20.249Z,2.25
2019-01-29T04:24:23.747Z,2.25
2019-01-29T04:25:27.168Z,2.19
2019-01-29T04:26:30.608Z,2.12
2019-01-29T04:27:34.280Z,2.10
2019-01-29T04:28:37.810Z,2.12
2019-01-29T04:29:41.320Z,2.05
2019-01-29T04:30:44.769Z,1.96
2019-01-29T04:31:48.198Z,1.95
2019-01-29T04:32:51.717Z,1.95
2019-01-29T04:33:55.208Z,1.91
2019-01-29T04:34:58.728Z,1.91
2019-01-29T04:36:02.255Z,1.95
2019-01-29T04:37:05.919Z,2.00
2019-01-29T04:38:09.496Z,2.01
2019-01-29T04:39:13.024Z,2.08
2019-01-29T04:40:18.919Z,2.06
2019-01-29T04:41:22.381Z,2.08
2019-01-29T04:42:25.919Z,2.05
2019-01-29T04:43:29.432Z,1.97
2019-01-29T04:44:32.872Z,1.91
2019-01-29T04:45:36.371Z,1.89
2019-01-29T04:46:39.794Z,1.88
2019-01-29T04:47:43.290Z,1.87
2019-01-29T04:48:46.816Z,1.98
2019-01-29T04:49:50.256Z,2.05
2019-01-29T04:50:53.690Z,2.07
2019-01-29T04:51:57.188Z,2.11
2019-01-29T04:53:00.676Z,2.09
2019-01-29T04:54:04.363Z,2.02
2019-01-29T04:55:10.660Z,2.08
2019-01-29T04:56:14.206Z,2.10
2019-01-29T04:57:17.813Z,2.08
2019-01-29T04:58:21.250Z,2.02
2019-01-29T04:59:24.704Z,2.08
2019-01-29T05:00:28.386Z,2.19
2019-01-29T05:01:31.875Z,2.17
2019-01-29T05:02:35.446Z,2.15
2019-01-29T05:03:38.941Z,2.08
2019-01-29T05:04:42.393Z,2.08
2019-01-29T05:05:45.926Z,2.07
2019-01-29T05:06:49.845Z,2.00
2019-01-29T05:07:53.462Z,2.00
2019-01-29T05:08:56.981Z,2.10
2019-01-29T05:10:00.961Z,2.19
2019-01-29T05:11:04.660Z,2.16
2019-01-29T05:12:08.136Z,2.18
2019-01-29T05:13:11.641Z,2.26
2019-01-29T05:14:15.081Z,2.23
2019-01-29T05:15:19.954Z,2.14
2019-01-29T05:16:23.476Z,2.13
2019-01-29T05:17:26.971Z,2.14
2019-01-29T05:18:32.116Z,2.16
2019-01-29T05:19:35.842Z,2.03
2019-01-29T05:20:39.474Z,1.98
2019-01-29T05:21:43.001Z,1.97
2019-01-29T05:22:46.455Z,1.95
2019-01-29T05:23:49.987Z,2.02
2019-01-29T05:24:53.485Z,2.10
2019-01-29T05:25:57.029Z,2.03
2019-01-29T05:27:00.513Z,1.98
2019-01-29T05:28:03.992Z,1.99
2019-01-29T05:29:07.558Z,2.00
2019-01-29T05:30:17.282Z,2.01
2019-01-29T05:31:20.729Z,2.01
2019-01-29T05:32:24.243Z,2.03
2019-01-29T05:33:27.670Z,2.01
2019-01-29T05:34:31.117Z,2.08
2019-01-29T05:35:34.536Z,2.02
2019-01-29T05:36:37.981Z,1.96
2019-01-29T05:37:41.441Z,1.92
2019-01-29T05:38:44.874Z,1.99
2019-01-29T05:39:48.321Z,2.07
2019-01-29T05:40:51.813Z,2.08
2019-01-29T05:41:55.264Z,2.19
2019-01-29T05:42:58.725Z,2.20
2019-01-29T05:44:02.150Z,2.18
2019-01-29T05:45:08.910Z,2.17
2019-01-29T05:46:12.417Z,2.18
2019-01-29T05:47:15.988Z,2.20
2019-01-29T05:48:19.429Z,2.17
2019-01-29T05:49:22.857Z,2.25
2019-01-29T05:50:26.370Z,2.23
2019-01-29T05:51:29.888Z,2.13
2019-01-29T05:52:33.475Z,2.07
2019-01-29T05:53:36.967Z,2.07
2019-01-29T05:54:40.472Z,1.99
2019-01-29T05:55:43.892Z,2.02
2019-01-29T05:56:47.878Z,2.03
2019-01-29T05:57:51.445Z,2.01
2019-01-29T05:58:54.876Z,2.09
2019-01-29T05:59:58.359Z,2.15
2019-01-29T06:01:01.803Z,2.10
2019-01-29T06:02:05.289Z,2.02
2019-01-29T06:03:08.808Z,1.96
2019-01-29T06:04:12.303Z,2.06
2019-01-29T06:05:15.878Z,2.15
2019-01-29T06:06:19.389Z,2.21
2019-01-29T06:07:22.860Z,2.22
2019-01-29T06:08:26.351Z,2.07
2019-01-29T06:09:29.726Z,2.11
2019-01-29T06:10:33.175Z,2.10
2019-01-29T06:11:36.665Z,1.97
2019-01-29T06:12:40.113Z,1.83
2019-01-29T06:13:43.589Z,1.99
2019-01-29T06:14:47.081Z,2.12
2019-01-29T06:15:50.532Z,2.16
2019-01-29T06:16:53.976Z,2.20
2019-01-29T06:17:57.493Z,2.19
2019-01-29T06:19:01.009Z,2.10
2019-01-29T06:20:07.313Z,2.16
2019-01-29T06:21:10.844Z,2.17
2019-01-29T06:22:14.346Z,2.11
2019-01-29T06:23:17.864Z,2.10
2019-01-29T06:24:25.800Z,2.18
2019-01-29T06:25:26.528Z,2.19
2019-01-29T06:26:29.952Z,2.22
2019-01-29T06:27:33.447Z,2.26
2019-01-29T06:28:36.978Z,2.14
2019-01-29T06:29:40.395Z,2.13
2019-01-29T06:30:44.165Z,2.11
2019-01-29T06:31:47.702Z,2.14
2019-01-29T06:32:51.261Z,2.13
2019-01-29T06:33:54.780Z,2.10
2019-01-29T06:34:58.209Z,2.02
2019-01-29T06:36:01.707Z,2.04
2019-01-29T06:37:05.203Z,2.09
2019-01-29T06:38:08.718Z,2.10
2019-01-29T06:39:12.225Z,2.03
2019-01-29T06:40:24.713Z,2.03
2019-01-29T06:41:28.340Z,1.99
2019-01-29T06:42:31.837Z,2.00
2019-01-29T06:43:35.261Z,2.06
2019-01-29T06:44:38.771Z,1.99
2019-01-29T06:45:42.223Z,2.10
2019-01-29T06:46:45.662Z,2.10
2019-01-29T06:47:49.603Z,2.09
2019-01-29T06:48:53.944Z,2.11
2019-01-29T06:49:57.454Z,2.06
2019-01-29T06:51:00.929Z,2.05
2019-01-29T06:52:04.523Z,2.00
2019-01-29T06:53:07.956Z,1.88
2019-01-29T06:54:11.523Z,1.97
2019-01-29T06:55:19.391Z,1.99
2019-01-29T06:56:22.948Z,2.01
2019-01-29T06:57:26.433Z,1.98
2019-01-29T06:58:29.867Z,2.02
2019-01-29T06:59:33.359Z,1.93
2019-01-29T07:00:36.964Z,1.92
2019-01-29T07:01:41.018Z,1.85
2019-01-29T07:02:44.543Z,1.93
2019-01-29T07:03:48.046Z,1.91
2019-01-29T07:04:51.492Z,1.90
2019-01-29T07:05:55.055Z,1.99
2019-01-29T07:06:58.666Z,2.04
2019-01-29T07:08:02.355Z,1.95
2019-01-29T07:09:08.679Z,2.05
2019-01-29T07:10:15.060Z,2.08
2019-01-29T07:11:18.601Z,2.11
2019-01-29T07:12:22.165Z,2.09
2019-01-29T07:13:25.655Z,2.09
2019-01-29T07:14:29.161Z,2.08
2019-01-29T07:15:49.857Z,2.11
2019-01-29T07:16:55.140Z,2.08
2019-01-29T07:17:58.812Z,1.99
2019-01-29T07:19:04.003Z,2.03
2019-01-29T07:20:10.412Z,2.01
2019-01-29T07:21:14.110Z,2.08
2019-01-29T07:22:17.706Z,2.19
2019-01-29T07:23:21.198Z,2.17
2019-01-29T07:24:26.183Z,2.20
2019-01-29T07:25:29.843Z,2.26
2019-01-29T07:26:33.373Z,2.27
2019-01-29T07:27:37.241Z,2.16
2019-01-29T07:28:41.041Z,2.09
2019-01-29T07:29:44.805Z,2.02
2019-01-29T07:30:50.575Z,1.91
2019-01-29T07:31:54.113Z,1.95
2019-01-29T07:32:58.090Z,2.01
2019-01-29T07:34:02.090Z,2.13
2019-01-29T07:35:07.159Z,2.23
2019-01-29T07:36:10.606Z,2.22
2019-01-29T07:37:21.794Z,2.20
2019-01-29T07:38:20.040Z,2.17
2019-01-29T07:39:23.588Z,2.18
2019-01-29T07:40:27.525Z,2.15
2019-01-29T07:41:31.527Z,2.03
2019-01-29T07:42:35.029Z,2.01
2019-01-29T07:43:38.809Z,2.04
2019-01-29T07:44:43.995Z,2.15
2019-01-29T07:45:47.849Z,2.23
2019-01-29T07:46:53.924Z,2.22
2019-01-29T07:47:57.666Z,2.32
2019-01-29T07:49:01.110Z,2.37
2019-01-29T07:50:06.987Z,2.25
2019-01-29T07:51:10.473Z,2.21
2019-01-29T07:52:14.360Z,2.17
2019-01-29T07:53:18.112Z,2.15
2019-01-29T07:54:21.641Z,2.14
2019-01-29T07:55:25.261Z,2.13
2019-01-29T07:56:30.520Z,2.15
2019-01-29T07:57:34.091Z,2.18
2019-01-29T07:58:37.669Z,2.20
2019-01-29T07:59:41.097Z,2.20
2019-01-29T08:00:44.833Z,2.16
2019-01-29T08:01:48.756Z,2.11
2019-01-29T08:02:54.089Z,2.13
2019-01-29T08:04:01.884Z,2.17
2019-01-29T08:05:08.802Z,2.24
2019-01-29T08:06:12.405Z,2.24
2019-01-29T08:07:19.045Z,2.33
2019-01-29T08:08:22.759Z,2.37
2019-01-29T08:09:26.455Z,2.34
2019-01-29T08:10:29.944Z,2.37
2019-01-29T08:11:34.812Z,2.36
2019-01-29T08:12:38.494Z,2.28
2019-01-29T08:13:42.458Z,2.36
2019-01-29T08:14:46.215Z,2.32
2019-01-29T08:15:49.902Z,2.31
2019-01-29T08:16:53.708Z,2.25
2019-01-29T08:17:57.128Z,2.27
2019-01-29T08:19:00.911Z,2.31
2019-01-29T08:20:07.533Z,2.24
2019-01-29T08:21:11.121Z,2.20
2019-01-29T08:22:14.776Z,2.25
2019-01-29T08:23:18.291Z,2.34
2019-01-29T08:24:21.781Z,2.28
2019-01-29T08:25:25.344Z,2.26
2019-01-29T08:26:28.827Z,2.31
2019-01-29T08:27:32.278Z,2.34
2019-01-29T08:28:35.766Z,2.32
2019-01-29T08:29:39.274Z,2.36
2019-01-29T08:30:42.839Z,2.35
2019-01-29T08:31:46.218Z,2.39
2019-01-29T08:32:49.712Z,2.25
2019-01-29T08:33:53.163Z,2.27
2019-01-29T08:34:56.785Z,2.26
2019-01-29T08:36:00.296Z,2.34
2019-01-29T08:37:03.740Z,2.38
2019-01-29T08:38:07.168Z,2.37
2019-01-29T08:39:10.847Z,2.36
2019-01-29T08:40:16.318Z,2.36
2019-01-29T08:41:19.727Z,2.39
2019-01-29T08:42:23.168Z,2.52
2019-01-29T08:43:26.594Z,2.51
2019-01-29T08:44:30.025Z,2.56
2019-01-29T08:45:33.585Z,2.61
2019-01-29T08:46:37.038Z,2.56
2019-01-29T08:47:40.535Z,2.51
2019-01-29T08:48:43.979Z,2.55
2019-01-29T08:49:47.392Z,2.58
2019-01-29T08:50:50.898Z,2.73
2019-01-29T08:51:54.332Z,2.84
2019-01-29T08:52:57.780Z,2.84
2019-01-29T08:54:01.281Z,2.80
2019-01-29T08:55:10.726Z,2.83
2019-01-29T08:56:10.960Z,2.76
2019-01-29T08:57:14.461Z,2.78
2019-01-29T08:58:18.034Z,2.79
2019-01-29T08:59:21.470Z,2.65
2019-01-29T09:00:25.051Z,2.50
2019-01-29T09:01:28.598Z,2.50
2019-01-29T09:02:32.054Z,2.40
2019-01-29T09:03:35.550Z,2.33
2019-01-29T09:04:39.076Z,2.27
2019-01-29T09:05:42.535Z,2.22
2019-01-29T09:06:46.106Z,2.35
2019-01-29T09:07:49.517Z,2.44
2019-01-29T09:08:53.097Z,2.55
2019-01-29T09:09:56.622Z,2.63
2019-01-29T09:11:00.199Z,2.73
2019-01-29T09:12:03.794Z,2.71
2019-01-29T09:13:07.425Z,2.60
2019-01-29T09:14:10.869Z,2.57
2019-01-29T09:15:16.455Z,2.66
2019-01-29T09:16:20.031Z,2.73
2019-01-29T09:17:23.624Z,2.85
2019-01-29T09:18:27.115Z,2.90
2019-01-29T09:19:30.554Z,2.88
2019-01-29T09:20:33.982Z,2.83
2019-01-29T09:21:37.426Z,2.88
2019-01-29T09:22:40.934Z,2.91
2019-01-29T09:23:44.461Z,2.78
2019-01-29T09:24:48.055Z,2.75
2019-01-29T09:25:51.563Z,2.76
2019-01-29T09:26:55.014Z,2.76
2019-01-29T09:27:58.483Z,2.76
2019-01-29T09:29:01.907Z,2.72
2019-01-29T09:30:11.240Z,2.82
2019-01-29T09:31:14.728Z,2.90
2019-01-29T09:32:18.155Z,2.96
2019-01-29T09:33:21.675Z,2.92
2019-01-29T09:34:25.116Z,2.89
2019-01-29T09:35:28.638Z,2.83
2019-01-29T09:36:34.007Z,2.78
2019-01-29T09:37:37.292Z,2.81
2019-01-29T09:38:40.814Z,2.85
2019-01-29T09:39:44.343Z,2.79
2019-01-29T09:40:47.904Z,2.66
2019-01-29T09:41:51.397Z,2.64
2019-01-29T09:42:54.909Z,2.57
2019-01-29T09:43:58.362Z,2.58
2019-01-29T09:45:01.794Z,2.67
2019-01-29T09:46:05.349Z,2.66
2019-01-29T09:47:09.016Z,2.72
2019-01-29T09:48:12.466Z,2.79
2019-01-29T09:49:16.057Z,2.88
2019-01-29T09:50:23.507Z,2.86
2019-01-29T09:51:27.011Z,2.92
2019-01-29T09:52:30.445Z,2.99
2019-01-29T09:53:33.889Z,3.03
2019-01-29T09:54:37.338Z,2.98
2019-01-29T09:55:40.836Z,2.88
2019-01-29T09:56:44.368Z,2.76
2019-01-29T09:57:47.866Z,2.77
2019-01-29T09:58:53.177Z,2.83
2019-01-29T09:59:56.595Z,2.83
2019-01-29T10:01:00.024Z,2.82
2019-01-29T10:02:03.515Z,2.71
2019-01-29T10:03:07.489Z,2.62
2019-01-29T10:04:10.932Z,2.66
2019-01-29T10:05:14.520Z,2.68
2019-01-29T10:06:18.056Z,2.76
2019-01-29T10:07:21.482Z,2.82
2019-01-29T10:08:24.955Z,2.74
2019-01-29T10:09:28.407Z,2.70
2019-01-29T10:10:31.851Z,2.69
2019-01-29T10:11:35.377Z,2.76
2019-01-29T10:12:38.880Z,2.73
2019-01-29T10:13:42.302Z,2.65
2019-01-29T10:14:45.753Z,2.59
2019-01-29T10:15:49.242Z,2.59
2019-01-29T10:16:52.750Z,2.60
2019-01-29T10:17:56.331Z,2.68
2019-01-29T10:18:59.747Z,2.84
2019-01-29T10:20:03.414Z,2.99
2019-01-29T10:21:07.000Z,3.12
2019-01-29T10:22:10.489Z,3.28
2019-01-29T10:23:13.946Z,3.29
2019-01-29T10:24:17.386Z,3.42
2019-01-29T10:25:20.961Z,3.57
2019-01-29T10:26:24.420Z,3.64
2019-01-29T10:27:27.839Z,3.80
2019-01-29T10:28:31.286Z,3.85
2019-01-29T10:29:34.784Z,3.85
2019-01-29T10:30:38.213Z,3.84
2019-01-29T10:31:41.707Z,3.87
2019-01-29T10:32:45.202Z,3.87
2019-01-29T10:33:48.706Z,3.91
2019-01-29T10:34:52.140Z,4.00
2019-01-29T10:35:55.717Z,4.04
2019-01-29T10:36:59.303Z,4.10
2019-01-29T10:38:02.983Z,4.18
2019-01-29T10:39:09.533Z,4.05
2019-01-29T10:40:16.033Z,3.85
2019-01-29T10:41:19.572Z,3.74
2019-01-29T10:42:23.068Z,3.67
2019-01-29T10:43:26.487Z,3.66
2019-01-29T10:44:29.925Z,3.62
2019-01-29T10:45:33.427Z,3.56
2019-01-29T10:46:36.934Z,3.55
2019-01-29T10:47:40.514Z,3.49
2019-01-29T10:48:44.011Z,3.54
2019-01-29T10:49:47.436Z,3.60
2019-01-29T10:50:51.118Z,3.70
2019-01-29T10:51:54.804Z,3.77
2019-01-29T10:52:58.656Z,3.74
2019-01-29T10:54:02.131Z,3.80
2019-01-29T10:55:07.828Z,3.87
2019-01-29T10:56:11.222Z,3.98
2019-01-29T10:57:14.745Z,4.08
2019-01-29T10:58:18.259Z,3.90
2019-01-29T10:59:21.688Z,3.91
2019-01-29T11:00:33.819Z,3.75
2019-01-29T11:01:37.322Z,3.52
2019-01-29T11:02:40.910Z,3.50
2019-01-29T11:03:44.335Z,3.63
2019-01-29T11:04:47.834Z,3.70
2019-01-29T11:05:51.323Z,3.60
2019-01-29T11:06:54.844Z,3.62
2019-01-29T11:07:58.431Z,3.66
2019-01-29T11:09:01.931Z,3.63
2019-01-29T11:10:08.413Z,3.72
2019-01-29T11:11:11.966Z,3.87
2019-01-29T11:12:15.470Z,3.94
2019-01-29T11:13:19.002Z,3.96
2019-01-29T11:14:22.445Z,4.00
2019-01-29T11:15:32.105Z,4.05
2019-01-29T11:16:35.678Z,4.05
2019-01-29T11:17:39.134Z,4.13
2019-01-29T11:18:42.628Z,4.16
2019-01-29T11:19:46.223Z,4.16
2019-01-29T11:20:49.691Z,4.20
2019-01-29T11:21:53.192Z,4.33
2019-01-29T11:22:56.780Z,4.38
2019-01-29T11:24:00.301Z,4.27
2019-01-29T11:25:05.686Z,4.24
2019-01-29T11:26:09.268Z,4.30
2019-01-29T11:27:12.767Z,4.29
2019-01-29T11:28:16.210Z,4.28
2019-01-29T11:29:19.788Z,4.40
2019-01-29T11:30:26.310Z,4.48
2019-01-29T11:31:29.848Z,4.36
2019-01-29T11:32:33.403Z,4.37
2019-01-29T11:33:36.985Z,4.31
2019-01-29T11:34:40.542Z,4.38
2019-01-29T11:35:44.044Z,4.50
2019-01-29T11:36:47.552Z,4.58
2019-01-29T11:37:51.055Z,4.73
2019-01-29T11:38:54.569Z,4.94
2019-01-29T11:39:58.165Z,5.15
2019-01-29T11:41:01.654Z,5.22
2019-01-29T11:42:05.302Z,5.13
2019-01-29T11:43:09.061Z,5.19
2019-01-29T11:44:12.616Z,5.26
2019-01-29T11:45:22.020Z,5.02
2019-01-29T11:46:25.702Z,4.93
2019-01-29T11:47:29.259Z,4.79
2019-01-29T11:48:32.808Z,4.71
2019-01-29T11:49:36.412Z,4.84
2019-01-29T11:50:39.949Z,5.00
2019-01-29T11:51:43.439Z,5.23
2019-01-29T11:52:47.005Z,5.40
2019-01-29T11:53:50.502Z,5.50
2019-01-29T11:54:54.019Z,5.51
2019-01-29T11:56:04.303Z,5.46
2019-01-29T11:57:02.675Z,5.35
2019-01-29T11:58:06.462Z,5.41
2019-01-29T11:59:09.895Z,5.58
2019-01-29T12:00:26.608Z,5.79
2019-01-29T12:01:30.186Z,5.83
2019-01-29T12:02:33.674Z,5.73
2019-01-29T12:03:37.243Z,5.69
2019-01-29T12:04:40.670Z,5.63
2019-01-29T12:05:44.203Z,5.74
2019-01-29T12:06:47.628Z,5.79
2019-01-29T12:07:51.131Z,5.85
2019-01-29T12:08:54.591Z,5.89
2019-01-29T12:09:58.018Z,5.91
2019-01-29T12:11:01.541Z,5.75
2019-01-29T12:12:05.097Z,5.55
2019-01-29T12:13:08.601Z,5.56
2019-01-29T12:14:12.020Z,5.62
2019-01-29T12:15:22.006Z,5.59
2019-01-29T12:16:25.521Z,5.51
2019-01-29T12:17:28.980Z,5.41
2019-01-29T12:18:32.534Z,5.50
2019-01-29T12:19:36.049Z,5.53
2019-01-29T12:20:39.484Z,5.53
2019-01-29T12:21:43.080Z,5.47
2019-01-29T12:22:46.750Z,5.38
2019-01-29T12:23:50.249Z,5.25
2019-01-29T12:24:53.758Z,5.19
2019-01-29T12:25:57.242Z,5.13
2019-01-29T12:27:00.772Z,5.08
2019-01-29T12:28:04.356Z,5.10
2019-01-29T12:29:07.932Z,5.17
2019-01-29T12:30:14.638Z,5.21
2019-01-29T12:31:18.102Z,5.14
2019-01-29T12:32:21.613Z,5.13
2019-01-29T12:33:25.222Z,5.11
2019-01-29T12:34:28.668Z,4.98
2019-01-29T12:35:32.239Z,5.01
2019-01-29T12:36:35.746Z,5.14
2019-01-29T12:37:39.345Z,5.24
2019-01-29T12:38:42.826Z,5.23
2019-01-29T12:39:46.316Z,5.24
2019-01-29T12:40:49.803Z,5.24
2019-01-29T12:41:53.301Z,5.20
2019-01-29T12:42:56.882Z,5.24
2019-01-29T12:44:00.327Z,5.16
2019-01-29T12:45:04.988Z,5.16
2019-01-29T12:46:08.557Z,5.26
2019-01-29T12:47:12.113Z,5.16
2019-01-29T12:48:15.630Z,5.20
2019-01-29T12:49:19.132Z,5.53
2019-01-29T12:50:28.253Z,6.24
2019-01-29T12:51:32.825Z,7.65
2019-01-29T12:52:37.990Z,7.72
2019-01-29T12:53:41.541Z,7.70
2019-01-29T12:54:45.058Z,7.50
2019-01-29T12:55:48.513Z,7.31
2019-01-29T12:56:51.944Z,7.08
2019-01-29T12:57:55.429Z,6.80
2019-01-29T12:58:58.887Z,6.61
2019-01-29T13:00:02.473Z,6.44
2019-01-29T13:01:06.259Z,6.14
2019-01-29T13:02:09.830Z,6.03
2019-01-29T13:03:13.327Z,5.95
2019-01-29T13:04:16.837Z,6.01
2019-01-29T13:05:20.436Z,5.98
2019-01-29T13:06:23.890Z,6.05
2019-01-29T13:07:27.380Z,6.12
2019-01-29T13:08:30.958Z,6.18
2019-01-29T13:09:34.412Z,6.15
2019-01-29T13:10:37.929Z,6.15
2019-01-29T13:11:41.424Z,6.27
2019-01-29T13:12:44.923Z,6.54
2019-01-29T13:13:48.361Z,6.52
2019-01-29T13:14:51.959Z,6.57
2019-01-29T13:15:55.482Z,6.91
2019-01-29T13:16:58.980Z,7.04
2019-01-29T13:18:02.652Z,6.95
2019-01-29T13:19:06.212Z,6.90
2019-01-29T13:20:11.586Z,6.86
2019-01-29T13:21:15.142Z,6.86
2019-01-29T13:22:18.588Z,6.80
2019-01-29T13:23:22.091Z,6.76
2019-01-29T13:24:25.587Z,6.76
2019-01-29T13:25:29.094Z,7.64
2019-01-29T13:26:32.593Z,8.67
2019-01-29T13:27:36.209Z,9.12
2019-01-29T13:28:39.649Z,9.76
2019-01-29T13:29:43.146Z,10.38
2019-01-29T13:30:46.664Z,10.63
2019-01-29T13:31:50.117Z,10.88
2019-01-29T13:32:53.629Z,10.98
2019-01-29T13:33:57.046Z,10.74
2019-01-29T13:35:00.481Z,10.18
2019-01-29T13:36:06.706Z,9.73
2019-01-29T13:37:10.133Z,9.40
2019-01-29T13:38:13.703Z,9.43
2019-01-29T13:39:17.135Z,9.56
2019-01-29T13:40:20.625Z,9.60
2019-01-29T13:41:24.079Z,9.66
2019-01-29T13:42:27.520Z,9.66
2019-01-29T13:43:30.946Z,9.54
2019-01-29T13:44:34.395Z,9.36
2019-01-29T13:45:38.078Z,9.21
2019-01-29T13:46:41.591Z,9.12
2019-01-29T13:47:45.163Z,9.00
2019-01-29T13:48:48.671Z,8.85
2019-01-29T13:49:52.221Z,8.74
2019-01-29T13:50:56.187Z,8.65
2019-01-29T13:51:59.655Z,8.66
2019-01-29T13:53:03.220Z,8.65
2019-01-29T13:54:06.784Z,8.67
2019-01-29T13:55:13.363Z,8.69
2019-01-29T13:56:16.789Z,8.61
2019-01-29T13:57:20.394Z,8.47
2019-01-29T13:58:23.971Z,8.23
2019-01-29T13:59:27.397Z,8.13
2019-01-29T14:00:33.027Z,8.10
2019-01-29T14:01:36.457Z,8.08
2019-01-29T14:02:39.909Z,8.07
2019-01-29T14:03:43.440Z,8.07
2019-01-29T14:04:46.938Z,8.13
2019-01-29T14:05:50.515Z,8.15
2019-01-29T14:06:54.022Z,8.13
2019-01-29T14:07:57.468Z,8.08
2019-01-29T14:09:00.916Z,8.04